Time;durP1;ratioP1;P1;durP2;ratioP2;P2;SDS_P1;SDS_P2;PMS_P1;PMS_P2;Temp;Humidity;BMP_temperature;BMP_pressure;BME280_temperature;BME280_humidity;BME280_pressure;Samples;Min_cycle;Max_cycle;Signal;HPM_P1;HPM_P2
2023/11/21 00:00:01;;;;;;;;;;;;;;;;;;5014407;28;19963;-49
2023/11/21 00:02:28;;;;;;;;;;;;;;;;;;5029608;28;19916;-48
2023/11/21 00:04:54;;;;;;;;;;;;;;;;;;5030064;28;20007;-48
2023/11/21 00:07:21;;;;;;;;;;;;;;;;;;5018864;28;19909;-48
2023/11/21 00:09:47;;;;;;;;;;;;;;;;;;5023744;28;19932;-48
2023/11/21 00:12:13;;;;;;;;;;;;;;;;;;5020654;28;19963;-48
2023/11/21 00:14:39;;;;;;;;;;;;;;;;;;5009855;28;19921;-47
2023/11/21 00:17:05;;;;;;;;;;;;;;;;;;5032829;28;19912;-49
2023/11/21 00:19:31;;;;;;;;;;;;;;;;;;5029106;28;20051;-48
2023/11/21 00:21:58;;;;;;;;;;;;;;;;;;5007528;28;19916;-48
2023/11/21 00:24:24;;;;;;;;;;;;;;;;;;5029579;28;19916;-47
2023/11/21 00:26:50;;;;;;;;;;;;;;;;;;5012097;28;19909;-47
2023/11/21 00:29:18;;;;;;;;;;;;;;;;;;5003058;28;19909;-47
2023/11/21 00:31:44;;;;;;;;;;;;;;;;;;5014072;28;19916;-48
2023/11/21 00:34:11;;;;;;;;;;;;;;;;;;5010919;28;19909;-48
2023/11/21 00:36:37;;;;;;;;;;;;;;;;;;5022380;28;19909;-49
2023/11/21 00:39:05;;;;;;;;;;;;;;;;;;5028027;28;19913;-51
2023/11/21 00:41:31;;;;;;;;;;;;;;;;;;5009878;28;19909;-50
2023/11/21 00:43:59;;;;;;;;;;;;;;;;;;5019343;28;20419;-48
2023/11/21 00:46:27;;;;;;;;;;;;;;;;;;5027716;28;19909;-48
2023/11/21 00:48:54;;;;;;;;;;;;;;;;;;5020576;28;19909;-49
2023/11/21 00:51:20;;;;;;;;;;;;;;;;;;5006747;28;20177;-49
2023/11/21 00:53:46;;;;;;;;;;;;;;;;;;5027296;28;19909;-52
2023/11/21 00:56:13;;;;;;;;;;;;;;;;;;5025872;28;19914;-52
2023/11/21 00:58:42;;;;;;;;;;;;;;;;;;5028025;28;19913;-50
2023/11/21 01:01:08;;;;;;;;;;;;;;;;;;5013816;28;19909;-52
2023/11/21 01:03:34;;;;;;;;;;;;;;;;;;5013796;28;19909;-49
2023/11/21 01:06:00;;;;;;;;;;;;;;;;;;5022108;28;19914;-49
2023/11/21 01:08:26;;;;;;;;;;;;;;;;;;5027933;28;19916;-52
2023/11/21 01:10:53;;;;;;;;;;;;;;;;;;5013708;28;19913;-48
2023/11/21 01:13:19;;;;;;;;;;;;;;;;;;5033824;28;20398;-52
2023/11/21 01:15:46;;;;;;;;;;;;;;;;;;5016915;28;20445;-51
2023/11/21 01:18:12;;;;;;;;;;;;;;;;;;5017305;28;20024;-51
2023/11/21 01:20:38;;;;;;;;;;;;;;;;;;5011632;28;19909;-50
2023/11/21 01:23:04;;;;;;;;;;;;;;;;;;5025919;28;19909;-49
2023/11/21 01:25:30;;;;;;;;;;;;;;;;;;5004329;28;19992;-52
2023/11/21 01:27:56;;;;;;;;;;;;;;;;;;5015796;28;19959;-52
2023/11/21 01:30:22;;;;;;;;;;;;;;;;;;5034160;28;20354;-49
2023/11/21 01:32:48;;;;;;;;;;;;;;;;;;4998802;28;20317;-48
2023/11/21 01:35:15;;;;;;;;;;;;;;;;;;5021682;28;19909;-49
2023/11/21 01:37:41;;;;;;;;;;;;;;;;;;5002718;28;19913;-48
2023/11/21 01:40:09;;;;;;;;;;;;;;;;;;5032342;28;19909;-48
2023/11/21 01:42:35;;;;;;;;;;;;;;;;;;5030274;28;19909;-47
2023/11/21 01:45:04;;;;;;;;;;;;;;;;;;5030686;28;20283;-47
2023/11/21 01:47:30;;;;;;;;;;;;;;;;;;5019864;28;19909;-47
2023/11/21 01:49:56;;;;;;;;;;;;;;;;;;5015996;28;19959;-47
2023/11/21 01:52:22;;;;;;;;;;;;;;;;;;5008153;28;19913;-48
2023/11/21 01:54:48;;;;;;;;;;;;;;;;;;5016457;28;19916;-50
2023/11/21 01:57:15;;;;;;;;;;;;;;;;;;5033521;28;19913;-47
2023/11/21 01:59:42;;;;;;;;;;;;;;;;;;5025246;28;19924;-49
2023/11/21 02:02:09;;;;;;;;;;;;;;;;;;4997349;28;19909;-51
2023/11/21 02:04:36;;;;;;;;;;;;;;;;;;5030208;28;19910;-51
2023/11/21 02:07:05;;;;;;;;;;;;;;;;;;5030446;28;20069;-48
2023/11/21 02:09:32;;;;;;;;;;;;;;;;;;5009111;28;20375;-51
2023/11/21 02:11:59;;;;;;;;;;;;;;;;;;5031413;28;19916;-51
2023/11/21 02:14:26;;;;;;;;;;;;;;;;;;5016567;28;19927;-51
2023/11/21 02:16:53;;;;;;;;;;;;;;;;;;5016608;28;19917;-52
2023/11/21 02:19:22;;;;;;;;;;;;;;;;;;5014487;28;19908;-52
2023/11/21 02:21:49;;;;;;;;;;;;;;;;;;5029841;28;19958;-49
2023/11/21 02:24:17;;;;;;;;;;;;;;;;;;5029047;28;19909;-51
2023/11/21 02:26:43;;;;;;;;;;;;;;;;;;5003610;28;19911;-48
2023/11/21 02:29:11;;;;;;;;;;;;;;;;;;5032961;28;19945;-47
2023/11/21 02:31:47;;;;;;;;;;;;;;;;;;5007105;28;19913;-47
2023/11/21 02:34:13;;;;;;;;;;;;;;;;;;5029804;28;20367;-48
2023/11/21 02:36:39;;;;;;;;;;;;;;;;;;5022266;28;19909;-47
2023/11/21 02:39:07;;;;;;;;;;;;;;;;;;5012112;28;19913;-48
2023/11/21 02:41:34;;;;;;;;;;;;;;;;;;5027196;28;19909;-47
2023/11/21 02:44:00;;;;;;;;;;;;;;;;;;5016165;28;19909;-47
2023/11/21 02:46:26;;;;;;;;;;;;;;;;;;4981958;28;20272;-47
2023/11/21 02:48:54;;;;;;;;;;;;;;;;;;5021421;28;19982;-47
2023/11/21 02:51:20;;;;;;;;;;;;;;;;;;5028959;28;20290;-47
2023/11/21 02:53:50;;;;;;;;;;;;;;;;;;5028941;28;19909;-47
2023/11/21 02:56:17;;;;;;;;;;;;;;;;;;5032014;28;20003;-47
2023/11/21 02:58:43;;;;;;;;;;;;;;;;;;5015819;28;19916;-47
2023/11/21 03:01:10;;;;;;;;;;;;;;;;;;4998169;28;19909;-48
2023/11/21 03:03:40;;;;;;;;;;;;;;;;;;5012887;28;19971;-47
2023/11/21 03:06:06;;;;;;;;;;;;;;;;;;5013183;28;20051;-47
2023/11/21 03:08:32;;;;;;;;;;;;;;;;;;5015021;28;20395;-47
2023/11/21 03:10:58;;;;;;;;;;;;;;;;;;5028457;28;19909;-47
2023/11/21 03:13:24;;;;;;;;;;;;;;;;;;5030319;28;19945;-47
2023/11/21 03:15:50;;;;;;;;;;;;;;;;;;5002549;28;19932;-47
2023/11/21 03:18:17;;;;;;;;;;;;;;;;;;5028610;28;19913;-47
2023/11/21 03:20:46;;;;;;;;;;;;;;;;;;5030189;28;20410;-48
2023/11/21 03:23:12;;;;;;;;;;;;;;;;;;5001920;28;19935;-48
2023/11/21 03:25:38;;;;;;;;;;;;;;;;;;5018413;28;20329;-47
2023/11/21 03:28:04;;;;;;;;;;;;;;;;;;5014203;28;20330;-47
2023/11/21 03:30:30;;;;;;;;;;;;;;;;;;5028257;28;19917;-48
2023/11/21 03:32:57;;;;;;;;;;;;;;;;;;5029670;28;19921;-52
2023/11/21 03:35:24;;;;;;;;;;;;;;;;;;5031898;28;19915;-48
2023/11/21 03:37:50;;;;;;;;;;;;;;;;;;5014335;28;19913;-47
2023/11/21 03:40:16;;;;;;;;;;;;;;;;;;5029735;28;19939;-49
2023/11/21 03:42:42;;;;;;;;;;;;;;;;;;5028433;28;19909;-49
2023/11/21 03:45:08;;;;;;;;;;;;;;;;;;5023458;28;19912;-48
2023/11/21 03:47:34;;;;;;;;;;;;;;;;;;5012956;28;19968;-49
2023/11/21 03:50:00;;;;;;;;;;;;;;;;;;5029125;28;19909;-50
2023/11/21 03:52:28;;;;;;;;;;;;;;;;;;4993349;28;19967;-49
2023/11/21 03:54:55;;;;;;;;;;;;;;;;;;5030095;28;19909;-47
2023/11/21 03:57:21;;;;;;;;;;;;;;;;;;5032625;28;19920;-48
2023/11/21 03:59:47;;;;;;;;;;;;;;;;;;5015117;28;19913;-47
2023/11/21 04:02:13;;;;;;;;;;;;;;;;;;5021687;28;20299;-47
2023/11/21 04:04:39;;;;;;;;;;;;;;;;;;5018070;28;19992;-48
2023/11/21 04:07:05;;;;;;;;;;;;;;;;;;5031480;28;20394;-48
2023/11/21 04:09:31;;;;;;;;;;;;;;;;;;5031015;28;19916;-51
2023/11/21 04:11:57;;;;;;;;;;;;;;;;;;5013021;28;20003;-49
2023/11/21 04:14:23;;;;;;;;;;;;;;;;;;5029074;28;19916;-48
2023/11/21 04:16:49;;;;;;;;;;;;;;;;;;4994762;28;19915;-48
2023/11/21 04:19:15;;;;;;;;;;;;;;;;;;4995107;28;20004;-48
2023/11/21 04:21:41;;;;;;;;;;;;;;;;;;5028138;28;19948;-48
2023/11/21 04:24:07;;;;;;;;;;;;;;;;;;5013150;28;19910;-48
2023/11/21 04:26:33;;;;;;;;;;;;;;;;;;5027891;28;20390;-48
2023/11/21 04:28:59;;;;;;;;;;;;;;;;;;5034233;28;19912;-50
2023/11/21 04:31:25;;;;;;;;;;;;;;;;;;5039784;28;20367;-48
2023/11/21 04:33:51;;;;;;;;;;;;;;;;;;5008477;28;19910;-49
2023/11/21 04:36:17;;;;;;;;;;;;;;;;;;5011755;28;19913;-48
2023/11/21 04:38:43;;;;;;;;;;;;;;;;;;5019628;28;19982;-48
2023/11/21 04:41:10;;;;;;;;;;;;;;;;;;5030068;28;19908;-49
2023/11/21 04:43:36;;;;;;;;;;;;;;;;;;5013059;28;19912;-48
2023/11/21 04:46:02;;;;;;;;;;;;;;;;;;5018243;28;19910;-50
2023/11/21 04:48:28;;;;;;;;;;;;;;;;;;5023779;28;19909;-47
2023/11/21 04:50:54;;;;;;;;;;;;;;;;;;5026200;28;19909;-51
2023/11/21 04:53:20;;;;;;;;;;;;;;;;;;5031950;28;19911;-49
2023/11/21 04:55:46;;;;;;;;;;;;;;;;;;5031979;28;20253;-51
2023/11/21 04:58:12;;;;;;;;;;;;;;;;;;5014314;28;19924;-48
2023/11/21 05:00:38;;;;;;;;;;;;;;;;;;5031959;28;20283;-50
2023/11/21 05:03:06;;;;;;;;;;;;;;;;;;5031796;28;19951;-48
2023/11/21 05:05:33;;;;;;;;;;;;;;;;;;5031999;28;19959;-48
2023/11/21 05:07:59;;;;;;;;;;;;;;;;;;5031912;28;19945;-48
2023/11/21 05:10:25;;;;;;;;;;;;;;;;;;5031926;28;19912;-48
2023/11/21 05:12:52;;;;;;;;;;;;;;;;;;5031719;28;19952;-48
2023/11/21 05:15:18;;;;;;;;;;;;;;;;;;5031925;28;19909;-50
2023/11/21 05:17:44;;;;;;;;;;;;;;;;;;5031285;28;19913;-50
2023/11/21 05:20:11;;;;;;;;;;;;;;;;;;5031730;28;19916;-48
2023/11/21 05:22:37;;;;;;;;;;;;;;;;;;5031736;28;19916;-48
2023/11/21 05:25:03;;;;;;;;;;;;;;;;;;5014113;28;19909;-48
2023/11/21 05:27:30;;;;;;;;;;;;;;;;;;5014040;28;19909;-51
2023/11/21 05:29:56;;;;;;;;;;;;;;;;;;5031942;28;20318;-49
2023/11/21 05:32:23;;;;;;;;;;;;;;;;;;5013642;28;20627;-51
2023/11/21 05:34:49;;;;;;;;;;;;;;;;;;5031766;28;20006;-52
2023/11/21 05:37:15;;;;;;;;;;;;;;;;;;5031586;28;19920;-50
2023/11/21 05:39:41;;;;;;;;;;;;;;;;;;5013993;28;19916;-50
2023/11/21 05:42:09;;;;;;;;;;;;;;;;;;5031435;28;19909;-49
2023/11/21 05:44:35;;;;;;;;;;;;;;;;;;5031647;28;19909;-48
2023/11/21 05:47:01;;;;;;;;;;;;;;;;;;5031359;28;19909;-49
2023/11/21 05:49:27;;;;;;;;;;;;;;;;;;5031749;28;19948;-48
2023/11/21 05:51:53;;;;;;;;;;;;;;;;;;5031578;28;20379;-48
2023/11/21 05:54:20;;;;;;;;;;;;;;;;;;5031496;28;20020;-48
2023/11/21 05:56:46;;;;;;;;;;;;;;;;;;5031428;28;19915;-48
2023/11/21 05:59:12;;;;;;;;;;;;;;;;;;5031801;28;19963;-48
2023/11/21 06:01:38;;;;;;;;;;;;;;;;;;5000842;28;19920;-48
2023/11/21 06:04:04;;;;;;;;;;;;;;;;;;5034933;28;20413;-48
2023/11/21 06:06:31;;;;;;;;;;;;;;;;;;5034925;28;20386;-50
2023/11/21 06:08:57;;;;;;;;;;;;;;;;;;5034892;28;20318;-49
2023/11/21 06:11:24;;;;;;;;;;;;;;;;;;5034663;28;19913;-50
2023/11/21 06:13:50;;;;;;;;;;;;;;;;;;5017052;28;19915;-50
2023/11/21 06:16:18;;;;;;;;;;;;;;;;;;5034702;28;19916;-52
2023/11/21 06:18:44;;;;;;;;;;;;;;;;;;5070039;22;20010;-48
2023/11/21 06:21:10;;;;;;;;;;;;;;;;;;5074422;28;20316;-52
2023/11/21 06:23:36;;;;;;;;;;;;;;;;;;5056088;28;19985;-50
2023/11/21 06:26:04;;;;;;;;;;;;;;;;;;5074562;28;19908;-51
2023/11/21 06:28:30;;;;;;;;;;;;;;;;;;5060093;28;20393;-52
2023/11/21 06:30:57;;;;;;;;;;;;;;;;;;5054218;28;20375;-48
2023/11/21 06:33:23;;;;;;;;;;;;;;;;;;5053807;28;19908;-51
2023/11/21 06:35:49;;;;;;;;;;;;;;;;;;5054249;28;19915;-48
2023/11/21 06:38:15;;;;;;;;;;;;;;;;;;5053757;28;19968;-51
2023/11/21 06:40:42;;;;;;;;;;;;;;;;;;5036162;28;19955;-49
2023/11/21 06:43:08;;;;;;;;;;;;;;;;;;5053666;28;20354;-49
2023/11/21 06:45:34;;;;;;;;;;;;;;;;;;5054114;28;19913;-49
2023/11/21 06:48:00;;;;;;;;;;;;;;;;;;5035734;28;20283;-48
2023/11/21 06:50:26;;;;;;;;;;;;;;;;;;5054062;28;19909;-51
2023/11/21 06:52:52;;;;;;;;;;;;;;;;;;5053625;28;19912;-49
2023/11/21 06:55:18;;;;;;;;;;;;;;;;;;5053911;28;19915;-49
2023/11/21 06:57:44;;;;;;;;;;;;;;;;;;5053384;28;20011;-50
2023/11/21 07:00:11;;;;;;;;;;;;;;;;;;5053780;28;19909;-48
2023/11/21 07:02:38;;;;;;;;;;;;;;;;;;5053139;28;19924;-48
2023/11/21 07:05:04;;;;;;;;;;;;;;;;;;5053651;28;19912;-48
2023/11/21 07:07:30;;;;;;;;;;;;;;;;;;5053326;28;20367;-50
2023/11/21 07:09:56;;;;;;;;;;;;;;;;;;5035779;28;20070;-48
2023/11/21 07:12:23;;;;;;;;;;;;;;;;;;5035362;28;19966;-51
2023/11/21 07:14:49;;;;;;;;;;;;;;;;;;5053529;28;20270;-49
2023/11/21 07:17:17;;;;;;;;;;;;;;;;;;5035074;28;19991;-50
2023/11/21 07:19:43;;;;;;;;;;;;;;;;;;5052513;28;19908;-49
2023/11/21 07:22:09;;;;;;;;;;;;;;;;;;5035340;28;19927;-53
2023/11/21 07:24:36;;;;;;;;;;;;;;;;;;5053122;28;19909;-49
2023/11/21 07:27:04;;;;;;;;;;;;;;;;;;5053369;28;19943;-48
2023/11/21 07:29:30;;;;;;;;;;;;;;;;;;5052748;28;20401;-49
2023/11/21 07:31:56;;;;;;;;;;;;;;;;;;5035324;28;20007;-51
2023/11/21 07:34:22;;;;;;;;;;;;;;;;;;5052499;28;19926;-49
2023/11/21 07:36:48;;;;;;;;;;;;;;;;;;5053487;28;20389;-53
2023/11/21 07:39:16;;;;;;;;;;;;;;;;;;5052540;28;19916;-51
2023/11/21 07:41:48;;;;;;;;;;;;;;;;;;5032978;28;19940;-51
2023/11/21 07:44:14;;;;;;;;;;;;;;;;;;5049929;28;19965;-49
2023/11/21 07:46:40;;;;;;;;;;;;;;;;;;5053004;28;19944;-51
2023/11/21 07:49:06;;;;;;;;;;;;;;;;;;5052327;28;20045;-51
2023/11/21 07:51:32;;;;;;;;;;;;;;;;;;5018435;28;19909;-48
2023/11/21 07:53:58;;;;;;;;;;;;;;;;;;5052405;28;19915;-50
2023/11/21 07:56:24;;;;;;;;;;;;;;;;;;5052779;28;20357;-48
2023/11/21 07:58:50;;;;;;;;;;;;;;;;;;5052177;28;20059;-49
2023/11/21 08:01:16;;;;;;;;;;;;;;;;;;5052524;28;20286;-50
2023/11/21 08:03:44;;;;;;;;;;;;;;;;;;5052343;28;20034;-51
2023/11/21 08:06:10;;;;;;;;;;;;;;;;;;5035032;28;20279;-48
2023/11/21 08:08:36;;;;;;;;;;;;;;;;;;5034651;28;20432;-47
2023/11/21 08:11:03;;;;;;;;;;;;;;;;;;5034818;28;19966;-47
2023/11/21 08:13:32;;;;;;;;;;;;;;;;;;5052366;28;19905;-47
2023/11/21 08:16:02;;;;;;;;;;;;;;;;;;5052474;28;19908;-51
2023/11/21 08:18:28;;;;;;;;;;;;;;;;;;5051491;28;19952;-50
2023/11/21 08:20:55;;;;;;;;;;;;;;;;;;5052248;28;19938;-49
2023/11/21 08:23:25;;;;;;;;;;;;;;;;;;5033568;28;19908;-48
2023/11/21 08:25:51;;;;;;;;;;;;;;;;;;5052319;28;20370;-48
2023/11/21 08:28:17;;;;;;;;;;;;;;;;;;5033979;28;19909;-48
2023/11/21 08:30:43;;;;;;;;;;;;;;;;;;5052127;28;19960;-50
2023/11/21 08:33:09;;;;;;;;;;;;;;;;;;5033933;28;19932;-52
2023/11/21 08:35:36;;;;;;;;;;;;;;;;;;5034432;28;20014;-48
2023/11/21 08:38:02;;;;;;;;;;;;;;;;;;5033616;28;19960;-50
2023/11/21 08:40:28;;;;;;;;;;;;;;;;;;5052117;28;19908;-52
2023/11/21 08:42:54;;;;;;;;;;;;;;;;;;5051517;28;19973;-48
2023/11/21 08:45:20;;;;;;;;;;;;;;;;;;5034316;28;19909;-50
2023/11/21 08:47:46;;;;;;;;;;;;;;;;;;5051441;28;19908;-51
2023/11/21 08:50:13;;;;;;;;;;;;;;;;;;5051943;28;20375;-48
2023/11/21 08:52:40;;;;;;;;;;;;;;;;;;5051290;28;19917;-48
2023/11/21 08:55:12;;;;;;;;;;;;;;;;;;5050588;28;19915;-47
2023/11/21 08:57:38;;;;;;;;;;;;;;;;;;5051242;28;19921;-48
2023/11/21 09:00:07;;;;;;;;;;;;;;;;;;5034411;28;19913;-52
2023/11/21 09:02:37;;;;;;;;;;;;;;;;;;5033912;28;20007;-51
2023/11/21 09:05:03;;;;;;;;;;;;;;;;;;5051979;28;19908;-51
2023/11/21 09:07:29;;;;;;;;;;;;;;;;;;5051725;28;19909;-48
2023/11/21 09:09:55;;;;;;;;;;;;;;;;;;5051902;28;19955;-48
2023/11/21 09:12:21;;;;;;;;;;;;;;;;;;5051689;28;20016;-49
2023/11/21 09:14:47;;;;;;;;;;;;;;;;;;5051833;28;19909;-49
2023/11/21 09:17:14;;;;;;;;;;;;;;;;;;5051577;28;19908;-51
2023/11/21 09:19:40;;;;;;;;;;;;;;;;;;5051844;28;19909;-52
2023/11/21 09:22:06;;;;;;;;;;;;;;;;;;5051699;28;19916;-49
2023/11/21 09:24:32;;;;;;;;;;;;;;;;;;5051829;28;19917;-48
2023/11/21 09:26:59;;;;;;;;;;;;;;;;;;5051728;28;19908;-47
2023/11/21 09:29:26;;;;;;;;;;;;;;;;;;5051688;28;19916;-47
2023/11/21 09:31:52;;;;;;;;;;;;;;;;;;5051593;28;19908;-47
2023/11/21 09:34:18;;;;;;;;;;;;;;;;;;5035833;28;19951;-48
2023/11/21 09:36:44;;;;;;;;;;;;;;;;;;5055446;28;19936;-47
2023/11/21 09:39:10;;;;;;;;;;;;;;;;;;5055272;28;20007;-47
2023/11/21 09:41:36;;;;;;;;;;;;;;;;;;5055219;28;20345;-48
2023/11/21 09:44:02;;;;;;;;;;;;;;;;;;5055364;28;19908;-50
2023/11/21 09:46:29;;;;;;;;;;;;;;;;;;5055370;28;20187;-47
2023/11/21 09:48:56;;;;;;;;;;;;;;;;;;5055075;28;19909;-48
2023/11/21 09:51:22;;;;;;;;;;;;;;;;;;5037185;28;20366;-48
2023/11/21 09:53:49;;;;;;;;;;;;;;;;;;5037323;28;19909;-49
2023/11/21 09:56:19;;;;;;;;;;;;;;;;;;5055143;28;19909;-48
2023/11/21 09:58:45;;;;;;;;;;;;;;;;;;5054918;28;19917;-48
2023/11/21 10:01:12;;;;;;;;;;;;;;;;;;5054784;28;20503;-48
2023/11/21 10:03:38;;;;;;;;;;;;;;;;;;5054852;28;19909;-48
2023/11/21 10:06:05;;;;;;;;;;;;;;;;;;5054821;28;19998;-47
2023/11/21 10:08:31;;;;;;;;;;;;;;;;;;5036911;28;19908;-47
2023/11/21 10:10:59;;;;;;;;;;;;;;;;;;5037074;28;19932;-48
2023/11/21 10:13:25;;;;;;;;;;;;;;;;;;5037049;28;19916;-49
2023/11/21 10:15:52;;;;;;;;;;;;;;;;;;5036980;28;20302;-48
2023/11/21 10:18:18;;;;;;;;;;;;;;;;;;5054432;28;19916;-48
2023/11/21 10:20:51;;;;;;;;;;;;;;;;;;5054377;28;19912;-50
2023/11/21 10:23:17;;;;;;;;;;;;;;;;;;5054649;28;19999;-50
2023/11/21 10:25:43;;;;;;;;;;;;;;;;;;5054774;28;20278;-52
2023/11/21 10:28:10;;;;;;;;;;;;;;;;;;5054437;28;19915;-48
2023/11/21 10:30:37;;;;;;;;;;;;;;;;;;5054198;28;19909;-51
2023/11/21 10:33:03;;;;;;;;;;;;;;;;;;5054388;28;19905;-48
2023/11/21 10:35:29;;;;;;;;;;;;;;;;;;5054272;28;20378;-48
2023/11/21 10:37:55;;;;;;;;;;;;;;;;;;5036465;28;19962;-52
2023/11/21 10:40:21;;;;;;;;;;;;;;;;;;5036405;28;19999;-48
2023/11/21 10:42:47;;;;;;;;;;;;;;;;;;5054063;28;19909;-48
2023/11/21 10:45:14;;;;;;;;;;;;;;;;;;5053575;28;19915;-52
2023/11/21 10:47:40;;;;;;;;;;;;;;;;;;5054053;28;19904;-48
2023/11/21 10:50:08;;;;;;;;;;;;;;;;;;5053964;28;19916;-48
2023/11/21 10:52:36;;;;;;;;;;;;;;;;;;5053883;28;20371;-51
2023/11/21 10:55:03;;;;;;;;;;;;;;;;;;5054010;28;19905;-52
2023/11/21 10:57:29;;;;;;;;;;;;;;;;;;5053829;28;19912;-51
2023/11/21 10:59:55;;;;;;;;;;;;;;;;;;5053936;28;19905;-47
2023/11/21 11:02:21;;;;;;;;;;;;;;;;;;5053676;28;19908;-52
2023/11/21 11:04:47;;;;;;;;;;;;;;;;;;5053790;28;19913;-52
2023/11/21 11:07:13;;;;;;;;;;;;;;;;;;5035843;28;19912;-49
2023/11/21 11:09:40;;;;;;;;;;;;;;;;;;5053742;28;19944;-52
2023/11/21 11:12:06;;;;;;;;;;;;;;;;;;5053604;28;19912;-49
2023/11/21 11:14:32;;;;;;;;;;;;;;;;;;5035886;28;19920;-52
2023/11/21 11:16:59;;;;;;;;;;;;;;;;;;5053196;28;19913;-51
2023/11/21 11:19:25;;;;;;;;;;;;;;;;;;5053598;28;19912;-49
2023/11/21 11:21:51;;;;;;;;;;;;;;;;;;5035657;28;19905;-52
2023/11/21 11:24:17;;;;;;;;;;;;;;;;;;5035857;28;19915;-50
2023/11/21 11:26:43;;;;;;;;;;;;;;;;;;5053407;28;19916;-50
2023/11/21 11:29:09;;;;;;;;;;;;;;;;;;5048604;28;20441;-48
2023/11/21 11:31:38;;;;;;;;;;;;;;;;;;5034650;28;19951;-47
2023/11/21 11:34:04;;;;;;;;;;;;;;;;;;5038585;28;19912;-47
2023/11/21 11:36:30;;;;;;;;;;;;;;;;;;5068760;28;19975;-47
2023/11/21 11:38:56;;;;;;;;;;;;;;;;;;5040105;28;20298;-48
2023/11/21 11:41:22;;;;;;;;;;;;;;;;;;5067957;28;19952;-48
2023/11/21 11:43:48;;;;;;;;;;;;;;;;;;5046034;28;19970;-48
2023/11/21 11:46:15;;;;;;;;;;;;;;;;;;5032978;28;20287;-48
2023/11/21 11:48:41;;;;;;;;;;;;;;;;;;5015407;28;19909;-47
2023/11/21 11:51:11;;;;;;;;;;;;;;;;;;5015495;28;19909;-51
2023/11/21 11:53:37;;;;;;;;;;;;;;;;;;5032762;28;19948;-48
2023/11/21 11:56:03;;;;;;;;;;;;;;;;;;5032619;28;19909;-50
2023/11/21 11:58:29;;;;;;;;;;;;;;;;;;5011662;28;19948;-48
2023/11/21 12:00:55;;;;;;;;;;;;;;;;;;5034331;28;19912;-48
2023/11/21 12:03:21;;;;;;;;;;;;;;;;;;5049922;28;19935;-51
2023/11/21 12:05:49;;;;;;;;;;;;;;;;;;5049294;28;19920;-48
2023/11/21 12:08:15;;;;;;;;;;;;;;;;;;5044573;28;19966;-47
2023/11/21 12:10:42;;;;;;;;;;;;;;;;;;5046597;28;19913;-47
2023/11/21 12:13:08;;;;;;;;;;;;;;;;;;5036512;28;20396;-48
2023/11/21 12:15:35;;;;;;;;;;;;;;;;;;5031112;28;19971;-48
2023/11/21 12:18:01;;;;;;;;;;;;;;;;;;5031344;28;19920;-47
2023/11/21 12:20:27;;;;;;;;;;;;;;;;;;5030812;28;19998;-47
2023/11/21 12:22:53;;;;;;;;;;;;;;;;;;5030540;28;19982;-48
2023/11/21 12:25:19;;;;;;;;;;;;;;;;;;5030394;28;20008;-51
2023/11/21 12:27:45;;;;;;;;;;;;;;;;;;5012936;28;19917;-51
2023/11/21 12:30:13;;;;;;;;;;;;;;;;;;5030599;28;20318;-48
2023/11/21 12:32:39;;;;;;;;;;;;;;;;;;5030385;28;19913;-49
2023/11/21 12:35:06;;;;;;;;;;;;;;;;;;5030455;28;19909;-48
2023/11/21 12:37:32;;;;;;;;;;;;;;;;;;5030266;28;19913;-52
2023/11/21 12:39:59;;;;;;;;;;;;;;;;;;5030597;28;19916;-48
2023/11/21 12:42:25;;;;;;;;;;;;;;;;;;5030116;28;19979;-51
2023/11/21 12:44:51;;;;;;;;;;;;;;;;;;5012913;28;19909;-50
2023/11/21 12:47:18;;;;;;;;;;;;;;;;;;5012621;28;20004;-50
2023/11/21 12:49:44;;;;;;;;;;;;;;;;;;5030097;28;20011;-49
2023/11/21 12:52:11;;;;;;;;;;;;;;;;;;5030255;28;19909;-47
2023/11/21 12:54:37;;;;;;;;;;;;;;;;;;5029997;28;20386;-48
2023/11/21 12:57:05;;;;;;;;;;;;;;;;;;5028522;28;20283;-47
2023/11/21 12:59:31;;;;;;;;;;;;;;;;;;5012708;28;19971;-48
2023/11/21 13:01:59;;;;;;;;;;;;;;;;;;5030148;28;19912;-51
2023/11/21 13:04:26;;;;;;;;;;;;;;;;;;5030203;28;20364;-50
2023/11/21 13:06:52;;;;;;;;;;;;;;;;;;5011927;28;20407;-51
2023/11/21 13:09:21;;;;;;;;;;;;;;;;;;5014640;28;19909;-48
2023/11/21 13:11:47;;;;;;;;;;;;;;;;;;5030459;28;20291;-51
2023/11/21 13:14:14;;;;;;;;;;;;;;;;;;5034455;28;19935;-49
2023/11/21 13:16:46;;;;;;;;;;;;;;;;;;5033098;28;19909;-51
2023/11/21 13:19:12;;;;;;;;;;;;;;;;;;5052825;28;19919;-49
2023/11/21 13:21:39;;;;;;;;;;;;;;;;;;5037672;28;20052;-50
2023/11/21 13:24:05;;;;;;;;;;;;;;;;;;5040958;28;19913;-52
2023/11/21 13:26:32;;;;;;;;;;;;;;;;;;5040953;28;20114;-52
2023/11/21 13:28:59;;;;;;;;;;;;;;;;;;5037141;28;19905;-51
2023/11/21 13:31:32;;;;;;;;;;;;;;;;;;5055475;28;19912;-52
2023/11/21 13:34:04;;;;;;;;;;;;;;;;;;5055515;28;19909;-49
2023/11/21 13:36:34;;;;;;;;;;;;;;;;;;5055587;28;19909;-49
2023/11/21 13:39:15;;;;;;;;;;;;;;;;;;5055485;28;20004;-48
2023/11/21 13:41:41;;;;;;;;;;;;;;;;;;5045680;28;19959;-48
2023/11/21 13:44:26;;;;;;;;;;;;;;;;;;5055671;28;19913;-47
2023/11/21 13:46:52;;;;;;;;;;;;;;;;;;5055162;28;20031;-48
2023/11/21 13:49:21;;;;;;;;;;;;;;;;;;5055217;28;19913;-48
2023/11/21 13:51:50;;;;;;;;;;;;;;;;;;5052298;28;19904;-47
2023/11/21 13:54:16;;;;;;;;;;;;;;;;;;5036432;28;19909;-47
2023/11/21 13:56:44;;;;;;;;;;;;;;;;;;5040954;28;19970;-49
2023/11/21 13:59:20;;;;;;;;;;;;;;;;;;5018601;28;19913;-51
2023/11/21 14:04:25;;;;;;;;;;;;;;;;;;5035127;28;19996;-48
2023/11/21 14:06:54;;;;;;;;;;;;;;;;;;5035195;28;19962;-48
2023/11/21 14:09:25;;;;;;;;;;;;;;;;;;5034612;28;19905;-48
2023/11/21 14:11:55;;;;;;;;;;;;;;;;;;5033768;28;19964;-49
2023/11/21 14:14:21;;;;;;;;;;;;;;;;;;5033460;28;19916;-48
2023/11/21 14:16:47;;;;;;;;;;;;;;;;;;5033930;28;19909;-49
2023/11/21 14:19:16;;;;;;;;;;;;;;;;;;5015553;28;20288;-51
2023/11/21 14:21:43;;;;;;;;;;;;;;;;;;5033437;28;20379;-51
2023/11/21 14:24:09;;;;;;;;;;;;;;;;;;5034704;28;20290;-48
2023/11/21 14:26:35;;;;;;;;;;;;;;;;;;5034585;28;19913;-49
2023/11/21 14:29:02;;;;;;;;;;;;;;;;;;5016740;28;20003;-51
2023/11/21 14:31:30;;;;;;;;;;;;;;;;;;5034168;28;20298;-48
2023/11/21 14:33:56;;;;;;;;;;;;;;;;;;5016792;28;19909;-47
2023/11/21 14:36:23;;;;;;;;;;;;;;;;;;5034419;28;19913;-48
2023/11/21 14:38:49;;;;;;;;;;;;;;;;;;5034314;28;20363;-47
2023/11/21 14:41:16;;;;;;;;;;;;;;;;;;5034269;28;19909;-46
2023/11/21 14:43:42;;;;;;;;;;;;;;;;;;5015726;28;19917;-46
2023/11/21 14:46:14;;;;;;;;;;;;;;;;;;5033095;28;20283;-46
2023/11/21 14:48:42;;;;;;;;;;;;;;;;;;5034349;28;19967;-47
2023/11/21 14:51:59;;;;;;;;;;;;;;;;;;5016126;28;19928;-48
2023/11/21 14:53:57;;;;;;;;;;;;;;;;;;5026469;28;19913;-47
2023/11/21 14:56:28;;;;;;;;;;;;;;;;;;5034092;28;19909;-47
2023/11/21 14:58:55;;;;;;;;;;;;;;;;;;5016261;28;19913;-50
2023/11/21 15:01:30;;;;;;;;;;;;;;;;;;5033797;28;19909;-47
2023/11/21 15:03:56;;;;;;;;;;;;;;;;;;5034004;28;20161;-47
2023/11/21 15:06:31;;;;;;;;;;;;;;;;;;5033790;28;19909;-47
2023/11/21 15:09:44;;;;;;;;;;;;;;;;;;5034159;28;19948;-47
2023/11/21 15:11:44;;;;;;;;;;;;;;;;;;5026066;28;19959;-47
2023/11/21 15:14:13;;;;;;;;;;;;;;;;;;5033619;28;19911;-46
2023/11/21 15:16:42;;;;;;;;;;;;;;;;;;5044975;28;20024;-47
2023/11/21 15:19:09;;;;;;;;;;;;;;;;;;5052163;28;19916;-47
2023/11/21 15:21:35;;;;;;;;;;;;;;;;;;5052648;28;19920;-48
2023/11/21 15:24:01;;;;;;;;;;;;;;;;;;5053123;28;20342;-47
2023/11/21 15:26:28;;;;;;;;;;;;;;;;;;5053345;28;19911;-49
2023/11/21 15:28:54;;;;;;;;;;;;;;;;;;5052594;28;19959;-48
2023/11/21 15:31:24;;;;;;;;;;;;;;;;;;5034653;28;19912;-47
2023/11/21 15:33:51;;;;;;;;;;;;;;;;;;5053373;28;19909;-49
2023/11/21 15:36:18;;;;;;;;;;;;;;;;;;5053364;28;19908;-49
2023/11/21 15:38:44;;;;;;;;;;;;;;;;;;5053156;28;19995;-46
2023/11/21 15:41:11;;;;;;;;;;;;;;;;;;5052994;28;19909;-47
2023/11/21 15:43:37;;;;;;;;;;;;;;;;;;5053143;28;19908;-48
2023/11/21 15:46:07;;;;;;;;;;;;;;;;;;5035342;28;19908;-48
2023/11/21 15:48:33;;;;;;;;;;;;;;;;;;5053048;28;20536;-46
2023/11/21 15:50:59;;;;;;;;;;;;;;;;;;5052904;28;20444;-48
2023/11/21 15:53:25;;;;;;;;;;;;;;;;;;5034931;28;19913;-46
2023/11/21 15:55:51;;;;;;;;;;;;;;;;;;5052952;28;19909;-47
2023/11/21 15:58:17;;;;;;;;;;;;;;;;;;5052668;28;20677;-46
2023/11/21 16:00:44;;;;;;;;;;;;;;;;;;5052751;28;20484;-45
2023/11/21 16:03:11;;;;;;;;;;;;;;;;;;5052787;28;19954;-48
2023/11/21 16:05:37;;;;;;;;;;;;;;;;;;5034900;28;19916;-46
2023/11/21 16:08:03;;;;;;;;;;;;;;;;;;5052539;28;19962;-50
2023/11/21 16:10:29;;;;;;;;;;;;;;;;;;5052675;28;20050;-50
2023/11/21 16:12:56;;;;;;;;;;;;;;;;;;5052430;28;20308;-47
2023/11/21 16:15:22;;;;;;;;;;;;;;;;;;5052623;28;20331;-49
2023/11/21 16:17:48;;;;;;;;;;;;;;;;;;5052255;28;19919;-47
2023/11/21 16:20:15;;;;;;;;;;;;;;;;;;5052194;28;20039;-50
2023/11/21 16:22:41;;;;;;;;;;;;;;;;;;5052375;28;19909;-46
2023/11/21 16:25:11;;;;;;;;;;;;;;;;;;5052600;28;19909;-46
2023/11/21 16:27:37;;;;;;;;;;;;;;;;;;5052303;28;19931;-45
2023/11/21 16:30:04;;;;;;;;;;;;;;;;;;5052392;28;19943;-46
2023/11/21 16:32:30;;;;;;;;;;;;;;;;;;5052273;28;19912;-46
2023/11/21 16:34:56;;;;;;;;;;;;;;;;;;5052214;28;19909;-46
2023/11/21 16:37:22;;;;;;;;;;;;;;;;;;5050972;28;20000;-47
2023/11/21 16:39:48;;;;;;;;;;;;;;;;;;5034228;28;19909;-46
2023/11/21 16:42:14;;;;;;;;;;;;;;;;;;5051607;28;19913;-46
2023/11/21 16:44:40;;;;;;;;;;;;;;;;;;5051678;28;19915;-47